createdAt,value
2022-09-12T00:02:07.495Z,14.73
2022-09-12T00:04:34.150Z,14.61
2022-09-12T00:07:00.801Z,14.05
2022-09-12T00:09:27.503Z,14.36
2022-09-12T00:11:54.265Z,15.38
2022-09-12T00:14:20.929Z,15.84
2022-09-12T00:16:47.688Z,14.09
2022-09-12T00:19:14.523Z,13.45
2022-09-12T00:21:42.145Z,13.88
2022-09-12T00:24:10.545Z,14.49
2022-09-12T00:26:37.262Z,14.52
2022-09-12T00:29:04.466Z,15.06
2022-09-12T00:31:31.476Z,16.00
2022-09-12T00:34:00.825Z,16.82
2022-09-12T00:36:29.284Z,16.71
2022-09-12T00:38:56.397Z,15.73
2022-09-12T00:41:34.826Z,15.06
2022-09-12T00:44:21.021Z,15.52
2022-09-12T00:46:53.999Z,16.03
2022-09-12T00:50:10.911Z,17.08
2022-09-12T00:52:42.325Z,17.30
2022-09-12T00:55:49.416Z,17.17
2022-09-12T00:58:28.076Z,17.46
2022-09-12T01:00:55.494Z,17.43
2022-09-12T01:03:24.228Z,16.98
2022-09-12T01:05:57.180Z,17.25
2022-09-12T01:08:25.898Z,17.19
2022-09-12T01:10:52.786Z,16.99
2022-09-12T01:13:19.799Z,16.87
2022-09-12T01:15:46.611Z,16.42
2022-09-12T01:18:23.151Z,16.69
2022-09-12T01:21:07.867Z,16.75
2022-09-12T01:23:52.544Z,16.89
2022-09-12T01:26:46.486Z,16.85
2022-09-12T01:29:37.366Z,16.11
2022-09-12T01:32:25.566Z,16.09
2022-09-12T01:35:05.810Z,15.80
2022-09-12T01:38:10.309Z,16.00
2022-09-12T01:41:13.779Z,15.37
2022-09-12T01:44:52.175Z,16.16
2022-09-12T01:47:39.719Z,15.11
2022-09-12T01:50:33.804Z,13.52
2022-09-12T01:53:24.586Z,14.27
2022-09-12T01:56:22.325Z,13.45
2022-09-12T01:59:17.227Z,14.93
2022-09-12T02:02:03.415Z,14.97
2022-09-12T02:04:53.498Z,14.84
2022-09-12T02:07:27.370Z,15.75
2022-09-12T02:10:29.172Z,15.53
2022-09-12T02:13:03.169Z,15.78
2022-09-12T02:15:43.177Z,15.77
2022-09-12T02:18:14.515Z,15.49
2022-09-12T02:20:48.244Z,15.71
2022-09-12T02:23:23.427Z,15.51
2022-09-12T02:26:03.392Z,16.25
2022-09-12T02:28:35.926Z,16.51
2022-09-12T02:31:33.644Z,16.83
2022-09-12T02:34:33.142Z,16.91
2022-09-12T02:37:26.169Z,16.98
2022-09-12T02:39:57.398Z,16.46
2022-09-12T02:42:25.219Z,16.42
2022-09-12T02:44:54.931Z,16.26
2022-09-12T02:47:44.128Z,16.03
2022-09-12T02:50:11.124Z,16.08
2022-09-12T02:52:38.665Z,16.25
2022-09-12T02:55:06.607Z,16.28
2022-09-12T02:57:33.679Z,14.62
2022-09-12T03:00:02.069Z,14.60
2022-09-12T03:03:03.549Z,15.24
2022-09-12T03:05:47.187Z,15.17
2022-09-12T03:08:43.327Z,15.79
2022-09-12T03:11:40.912Z,16.00
2022-09-12T03:14:41.581Z,16.23
2022-09-12T03:17:42.861Z,16.40
2022-09-12T03:20:25.205Z,16.47
2022-09-12T03:23:02.924Z,16.42
2022-09-12T03:25:46.969Z,16.18
2022-09-12T03:28:16.546Z,16.47
2022-09-12T03:30:47.329Z,16.20
2022-09-12T03:33:17.881Z,15.97
2022-09-12T03:35:46.308Z,16.07
2022-09-12T03:38:13.479Z,16.20
2022-09-12T03:40:40.170Z,16.36
2022-09-12T03:43:09.141Z,16.41
2022-09-12T03:45:37.371Z,16.36
2022-09-12T03:48:06.215Z,16.32
2022-09-12T03:50:33.787Z,15.92
2022-09-12T03:53:00.558Z,16.29
2022-09-12T03:55:27.461Z,16.30
2022-09-12T03:57:54.905Z,16.19
2022-09-12T04:00:21.904Z,16.40
2022-09-12T04:02:48.714Z,16.43
2022-09-12T04:05:15.721Z,16.49
2022-09-12T04:07:42.383Z,16.31
2022-09-12T04:10:09.754Z,16.49
2022-09-12T04:12:36.618Z,16.33
2022-09-12T04:15:03.703Z,16.43
2022-09-12T04:17:30.313Z,16.39
2022-09-12T04:19:56.942Z,16.33
2022-09-12T04:22:23.809Z,16.39
2022-09-12T04:24:50.514Z,16.40
2022-09-12T04:27:17.146Z,16.31
2022-09-12T04:29:43.796Z,16.43
2022-09-12T04:32:10.650Z,16.39
2022-09-12T04:34:37.682Z,16.41
2022-09-12T04:37:04.606Z,16.46
2022-09-12T04:39:31.260Z,16.45
2022-09-12T04:41:57.880Z,16.21
2022-09-12T04:44:24.589Z,16.41
2022-09-12T04:46:51.469Z,16.38
2022-09-12T04:49:19.303Z,16.29
2022-09-12T04:51:46.660Z,16.18
2022-09-12T04:54:19.604Z,16.25
2022-09-12T04:56:49.410Z,16.12
2022-09-12T04:59:18.271Z,16.17
2022-09-12T05:01:45.071Z,16.33
2022-09-12T05:04:13.248Z,16.44
2022-09-12T05:06:41.615Z,16.43
2022-09-12T05:09:12.251Z,16.42
2022-09-12T05:14:29.797Z,16.49
2022-09-12T05:16:59.943Z,16.55
2022-09-12T05:19:28.231Z,16.46
2022-09-12T05:21:54.837Z,16.58
2022-09-12T05:24:21.649Z,16.65
2022-09-12T05:26:48.314Z,16.68
2022-09-12T05:29:14.998Z,16.56
2022-09-12T05:31:41.856Z,16.82
2022-09-12T05:34:10.038Z,16.89
2022-09-12T05:36:37.442Z,16.91
2022-09-12T05:39:04.855Z,17.17
2022-09-12T05:41:33.755Z,17.15
2022-09-12T05:44:04.519Z,17.27
2022-09-12T05:46:43.035Z,17.53
2022-09-12T05:49:13.163Z,17.73
2022-09-12T05:51:44.881Z,17.92
2022-09-12T05:54:15.426Z,17.98
2022-09-12T05:56:44.152Z,18.12
2022-09-12T05:59:20.773Z,18.12
2022-09-12T06:01:48.549Z,18.19
2022-09-12T06:04:15.895Z,18.00
2022-09-12T06:06:45.480Z,18.45
2022-09-12T06:09:15.142Z,18.71
2022-09-12T06:11:43.029Z,18.61
2022-09-12T06:14:12.164Z,18.81
2022-09-12T06:16:39.473Z,18.91
2022-09-12T06:19:19.334Z,18.99
2022-09-12T06:21:49.089Z,18.79
2022-09-12T06:24:17.645Z,19.03
2022-09-12T06:26:44.893Z,19.30
2022-09-12T06:29:12.179Z,19.10
2022-09-12T06:31:41.363Z,18.11
2022-09-12T06:34:12.240Z,19.07
2022-09-12T06:36:42.826Z,18.84
2022-09-12T06:39:19.138Z,17.90
2022-09-12T06:41:48.261Z,18.10
2022-09-12T06:44:21.647Z,18.25
2022-09-12T06:46:48.993Z,18.22
2022-09-12T06:49:15.813Z,18.39
2022-09-12T06:51:43.074Z,18.49
2022-09-12T06:54:12.947Z,18.87
2022-09-12T06:56:39.648Z,18.34
2022-09-12T06:59:06.762Z,18.99
2022-09-12T07:01:33.590Z,18.34
2022-09-12T07:04:03.052Z,18.39
2022-09-12T07:06:35.719Z,18.68
2022-09-12T07:09:05.785Z,19.09
2022-09-12T07:11:36.546Z,18.64
2022-09-12T07:14:06.486Z,19.38
2022-09-12T07:16:36.137Z,19.75
2022-09-12T07:19:04.781Z,19.43
2022-09-12T07:21:31.604Z,19.73
2022-09-12T07:23:58.774Z,20.01
2022-09-12T07:26:28.216Z,19.68
2022-09-12T07:29:08.299Z,19.88
2022-09-12T07:31:44.145Z,20.22
2022-09-12T07:34:11.152Z,21.04
2022-09-12T07:36:38.013Z,20.93
2022-09-12T07:39:04.733Z,21.47
2022-09-12T07:41:33.884Z,21.95
2022-09-12T07:44:02.990Z,21.63
2022-09-12T07:46:31.813Z,20.84
2022-09-12T07:49:00.851Z,20.96
2022-09-12T07:51:30.512Z,21.40
2022-09-12T07:53:58.312Z,21.85
2022-09-12T07:56:30.125Z,22.10
2022-09-12T07:58:58.853Z,22.58
2022-09-12T08:01:26.008Z,22.85
2022-09-12T08:03:59.100Z,23.13
2022-09-12T08:06:28.186Z,23.09
2022-09-12T08:08:57.432Z,23.29
2022-09-12T08:11:26.019Z,23.61
2022-09-12T08:13:56.135Z,23.29
2022-09-12T08:16:31.153Z,22.76
2022-09-12T08:18:59.767Z,22.38
2022-09-12T08:21:30.079Z,23.03
2022-09-12T08:24:03.936Z,23.88
2022-09-12T08:26:32.708Z,24.20
2022-09-12T08:29:00.279Z,24.47
2022-09-12T08:31:28.102Z,24.33
2022-09-12T08:33:58.601Z,23.86
2022-09-12T08:36:28.062Z,22.36
2022-09-12T08:39:00.798Z,21.08
2022-09-12T08:41:35.234Z,20.65
2022-09-12T08:44:22.726Z,20.07
2022-09-12T08:47:10.935Z,20.38
2022-09-12T08:50:10.801Z,21.29
2022-09-12T08:53:03.532Z,20.77
2022-09-12T08:55:53.444Z,21.97
2022-09-12T08:58:22.825Z,21.91
2022-09-12T09:01:12.151Z,22.36
2022-09-12T09:03:57.699Z,22.38
2022-09-12T09:06:59.222Z,23.43
2022-09-12T09:09:47.289Z,23.01
2022-09-12T09:12:54.644Z,22.47
2022-09-12T09:15:56.255Z,23.77
2022-09-12T09:18:33.421Z,24.47
2022-09-12T09:21:02.028Z,24.98
2022-09-12T09:23:42.715Z,24.28
2022-09-12T09:26:17.940Z,24.89
2022-09-12T09:28:54.013Z,22.88
2022-09-12T09:31:30.848Z,20.11
2022-09-12T09:33:57.525Z,22.17
2022-09-12T09:36:50.312Z,22.97
2022-09-12T09:39:36.679Z,22.87
2022-09-12T09:42:41.146Z,21.76
2022-09-12T09:45:19.505Z,23.50
2022-09-12T09:48:15.431Z,24.40
2022-09-12T09:50:42.920Z,21.79
2022-09-12T09:53:40.587Z,19.52
2022-09-12T09:56:27.065Z,21.11
2022-09-12T09:58:54.080Z,23.14
2022-09-12T10:01:21.144Z,22.39
2022-09-12T10:03:56.368Z,24.61
2022-09-12T10:06:34.244Z,25.24
2022-09-12T10:09:14.764Z,24.78
2022-09-12T10:11:45.695Z,24.96
2022-09-12T10:14:31.638Z,24.54
2022-09-12T10:16:59.503Z,24.59
2022-09-12T10:20:10.531Z,25.07
2022-09-12T10:22:39.559Z,24.70
2022-09-12T10:25:13.356Z,24.00
2022-09-12T10:27:42.192Z,25.30
2022-09-12T10:30:19.708Z,25.17
2022-09-12T10:32:53.058Z,24.42
2022-09-12T10:35:29.448Z,24.88
2022-09-12T10:38:02.385Z,24.72
2022-09-12T10:40:42.050Z,24.16
2022-09-12T10:43:33.496Z,24.58
2022-09-12T10:46:21.217Z,24.15
2022-09-12T10:48:51.502Z,24.55
2022-09-12T10:51:24.375Z,24.97
2022-09-12T10:53:54.320Z,24.28
2022-09-12T10:56:23.243Z,24.17
2022-09-12T10:59:16.853Z,25.46
2022-09-12T11:02:14.989Z,25.44
2022-09-12T11:05:08.038Z,24.04
2022-09-12T11:07:53.196Z,24.40
2022-09-12T11:10:57.145Z,24.64
2022-09-12T11:14:28.334Z,25.33
2022-09-12T11:17:30.079Z,26.43
2022-09-12T11:20:31.168Z,25.96
2022-09-12T11:23:13.625Z,25.72
2022-09-12T11:26:10.613Z,24.48
2022-09-12T11:29:05.619Z,25.61
2022-09-12T11:31:56.300Z,26.26
2022-09-12T11:35:07.002Z,26.13
2022-09-12T11:38:08.256Z,24.77
2022-09-12T11:41:15.448Z,26.38
2022-09-12T11:43:56.932Z,27.79
2022-09-12T11:46:39.535Z,28.41
2022-09-12T11:49:09.174Z,27.48
2022-09-12T11:52:03.784Z,27.89
2022-09-12T11:55:00.416Z,27.44
2022-09-12T11:57:47.980Z,28.22
2022-09-12T12:00:21.650Z,28.84
2022-09-12T12:02:57.659Z,29.48
2022-09-12T12:06:01.350Z,29.62
2022-09-12T12:08:31.940Z,29.68
2022-09-12T12:11:04.101Z,30.11
2022-09-12T12:13:33.727Z,30.35
2022-09-12T12:16:19.777Z,30.28
2022-09-12T12:18:53.508Z,30.33
2022-09-12T12:21:29.508Z,29.24
2022-09-12T12:24:08.148Z,29.39
2022-09-12T12:26:40.674Z,30.42
2022-09-12T12:29:32.858Z,29.57
2022-09-12T12:31:59.410Z,29.63
2022-09-12T12:34:44.384Z,29.73
2022-09-12T12:37:20.158Z,30.40
2022-09-12T12:39:53.910Z,29.78
2022-09-12T12:42:35.669Z,30.14
2022-09-12T12:45:08.408Z,29.29
2022-09-12T12:47:37.681Z,29.83
2022-09-12T12:50:16.226Z,29.12
2022-09-12T12:53:21.653Z,29.02
2022-09-12T12:55:52.504Z,28.24
2022-09-12T12:58:41.116Z,28.76
2022-09-12T13:01:21.176Z,26.96
2022-09-12T13:04:05.420Z,27.68
2022-09-12T13:06:41.000Z,27.95
2022-09-12T13:09:32.521Z,28.31
2022-09-12T13:12:09.879Z,29.01
2022-09-12T13:14:59.497Z,28.80
2022-09-12T13:17:38.161Z,28.24
2022-09-12T13:20:29.639Z,29.05
2022-09-12T13:22:57.681Z,29.59
2022-09-12T13:25:35.363Z,30.13
2022-09-12T13:28:11.325Z,29.59
2022-09-12T13:31:19.735Z,30.22
2022-09-12T13:33:59.853Z,30.32
2022-09-12T13:36:52.164Z,30.42
2022-09-12T13:39:28.377Z,29.32
2022-09-12T13:42:23.381Z,29.18
2022-09-12T13:45:12.481Z,27.83
2022-09-12T13:47:58.822Z,28.36
2022-09-12T13:50:51.675Z,29.17
2022-09-12T13:53:23.340Z,29.42
2022-09-12T13:55:59.575Z,29.42
2022-09-12T13:58:29.986Z,29.43
2022-09-12T14:01:16.098Z,29.40
2022-09-12T14:04:14.967Z,29.76
2022-09-12T14:06:53.423Z,29.65
2022-09-12T14:09:41.741Z,29.60
2022-09-12T14:12:23.223Z,29.52
2022-09-12T14:14:52.242Z,29.92
2022-09-12T14:17:29.792Z,29.63
2022-09-12T14:19:59.280Z,29.94
2022-09-12T14:22:27.897Z,30.01
2022-09-12T14:24:55.861Z,29.06
2022-09-12T14:27:37.273Z,28.26
2022-09-12T14:30:19.683Z,28.29
2022-09-12T14:33:12.696Z,28.69
2022-09-12T14:35:45.661Z,29.11
2022-09-12T14:38:15.077Z,29.60
2022-09-12T14:41:07.742Z,29.73
2022-09-12T14:43:38.797Z,29.84
2022-09-12T14:46:23.825Z,29.93
2022-09-12T14:49:12.714Z,29.65
2022-09-12T14:51:51.116Z,29.63
2022-09-12T14:54:44.531Z,29.45
2022-09-12T14:57:36.640Z,28.53
2022-09-12T15:00:14.213Z,28.89
2022-09-12T15:02:43.065Z,28.68
2022-09-12T15:05:12.352Z,28.35
2022-09-12T15:07:42.165Z,28.58
2022-09-12T15:10:36.754Z,27.97
2022-09-12T15:13:26.039Z,27.86
2022-09-12T15:15:54.329Z,28.12
2022-09-12T15:18:23.759Z,27.96
2022-09-12T15:21:00.840Z,28.31
2022-09-12T15:23:31.026Z,28.19
2022-09-12T15:25:57.735Z,27.46
2022-09-12T15:28:24.906Z,27.51
2022-09-12T15:30:55.651Z,27.49
2022-09-12T15:33:24.846Z,27.95
2022-09-12T15:35:52.994Z,27.73
2022-09-12T15:38:24.267Z,27.50
2022-09-12T15:40:53.955Z,27.46
2022-09-12T15:43:23.070Z,27.14
2022-09-12T15:45:51.714Z,26.90
2022-09-12T15:48:20.558Z,27.62
2022-09-12T15:50:47.384Z,27.21
2022-09-12T15:53:16.750Z,27.66
2022-09-12T15:55:43.877Z,27.27
2022-09-12T15:58:10.882Z,27.63
2022-09-12T16:00:37.730Z,27.12
2022-09-12T16:03:04.791Z,27.27
2022-09-12T16:05:32.249Z,26.98
2022-09-12T16:07:58.941Z,27.14
2022-09-12T16:10:29.952Z,27.44
2022-09-12T16:12:57.144Z,27.30
2022-09-12T16:15:26.172Z,26.99
2022-09-12T16:17:56.239Z,27.35
2022-09-12T16:20:23.561Z,26.76
2022-09-12T16:22:50.285Z,27.04
2022-09-12T16:25:17.424Z,26.79
2022-09-12T16:27:44.801Z,27.13
2022-09-12T16:30:11.936Z,27.40
2022-09-12T16:32:38.721Z,28.37
2022-09-12T16:35:06.497Z,28.69
2022-09-12T16:37:34.576Z,29.11
2022-09-12T16:40:03.432Z,29.10
2022-09-12T16:42:30.387Z,29.39
2022-09-12T16:44:57.074Z,29.82
2022-09-12T16:47:24.625Z,29.72
2022-09-12T16:49:51.378Z,29.66
2022-09-12T16:52:19.050Z,29.21
2022-09-12T16:54:45.836Z,28.99
2022-09-12T16:57:12.847Z,28.19
2022-09-12T16:59:39.587Z,28.21
2022-09-12T17:02:06.573Z,27.38
2022-09-12T17:04:33.236Z,26.84
2022-09-12T17:07:00.030Z,26.22
2022-09-12T17:09:28.159Z,26.01
2022-09-12T17:11:55.683Z,25.96
2022-09-12T17:14:22.923Z,25.78
2022-09-12T17:16:52.037Z,25.69
2022-09-12T17:19:29.721Z,25.80
2022-09-12T17:21:57.703Z,25.00
2022-09-12T17:24:24.360Z,24.86
2022-09-12T17:26:52.369Z,24.53
2022-09-12T17:29:19.501Z,24.40
2022-09-12T17:31:46.548Z,24.33
2022-09-12T17:34:17.509Z,23.62
2022-09-12T17:36:46.191Z,23.80
2022-09-12T17:39:14.299Z,23.94
2022-09-12T17:41:42.785Z,23.99
2022-09-12T17:44:12.482Z,23.79
2022-09-12T17:46:39.785Z,23.65
2022-09-12T17:49:11.830Z,23.32
2022-09-12T17:51:39.460Z,23.71
2022-09-12T17:54:11.812Z,23.24
2022-09-12T17:56:39.126Z,23.55
2022-09-12T17:59:08.715Z,23.43
2022-09-12T18:01:54.124Z,22.91
2022-09-12T18:04:20.898Z,22.72
2022-09-12T18:06:48.751Z,22.79
2022-09-12T18:09:21.967Z,23.13
2022-09-12T18:11:49.941Z,23.13
2022-09-12T18:14:17.699Z,22.42
2022-09-12T18:16:45.233Z,22.56
2022-09-12T18:19:12.178Z,22.33
2022-09-12T18:21:38.897Z,22.53
2022-09-12T18:24:06.410Z,21.49
2022-09-12T18:26:34.480Z,22.05
2022-09-12T18:29:01.184Z,22.08
2022-09-12T18:31:30.306Z,21.72
2022-09-12T18:33:59.775Z,21.66
2022-09-12T18:36:27.441Z,21.44
2022-09-12T18:38:54.954Z,21.87
2022-09-12T18:41:24.756Z,21.49
2022-09-12T18:43:59.994Z,21.41
2022-09-12T18:46:29.794Z,21.25
2022-09-12T18:48:57.915Z,21.49
2022-09-12T18:51:31.516Z,21.70
2022-09-12T18:54:11.204Z,21.70
2022-09-12T18:56:39.148Z,21.77
2022-09-12T18:59:07.193Z,21.50
2022-09-12T19:01:37.819Z,21.45
2022-09-12T19:04:07.508Z,21.44
2022-09-12T19:06:41.034Z,21.67
2022-09-12T19:09:09.583Z,21.19
2022-09-12T19:11:38.873Z,20.88
2022-09-12T19:14:06.616Z,20.97
2022-09-12T19:16:33.689Z,21.12
2022-09-12T19:19:00.589Z,21.02
2022-09-12T19:21:33.193Z,21.10
2022-09-12T19:24:06.927Z,20.27
2022-09-12T19:26:34.316Z,20.37
2022-09-12T19:29:02.814Z,20.53
2022-09-12T19:31:30.367Z,20.39
2022-09-12T19:34:05.780Z,20.66
2022-09-12T19:36:44.924Z,20.51
2022-09-12T19:39:11.929Z,20.67
2022-09-12T19:41:38.684Z,20.33
2022-09-12T19:44:05.611Z,20.44
2022-09-12T19:46:32.551Z,20.78
2022-09-12T19:48:59.355Z,20.87
2022-09-12T19:51:26.367Z,20.98
2022-09-12T19:53:53.388Z,20.70
2022-09-12T19:56:20.938Z,20.83
2022-09-12T19:58:55.032Z,20.83
2022-09-12T20:01:28.364Z,20.49
2022-09-12T20:03:56.354Z,19.69
2022-09-12T20:06:23.077Z,20.64
2022-09-12T20:08:50.054Z,20.63
2022-09-12T20:11:19.512Z,20.25
2022-09-12T20:13:46.871Z,19.99
2022-09-12T20:16:28.962Z,19.47
2022-09-12T20:19:06.898Z,19.62
2022-09-12T20:21:36.024Z,19.92
2022-09-12T20:24:16.036Z,20.24
2022-09-12T20:26:43.136Z,20.28
2022-09-12T20:29:10.498Z,19.37
2022-09-12T20:31:40.076Z,19.87
2022-09-12T20:34:07.403Z,20.13
2022-09-12T20:36:34.321Z,20.20
2022-09-12T20:39:02.451Z,19.80
2022-09-12T20:41:32.662Z,20.42
2022-09-12T20:43:59.978Z,20.60
2022-09-12T20:46:28.622Z,20.71
2022-09-12T20:48:55.443Z,20.78
2022-09-12T20:51:22.981Z,20.78
2022-09-12T20:53:54.842Z,20.71
2022-09-12T20:56:23.503Z,20.67
2022-09-12T20:58:50.734Z,20.61
2022-09-12T21:01:17.573Z,20.58
2022-09-12T21:03:44.740Z,20.45
2022-09-12T21:06:13.456Z,19.91
2022-09-12T21:08:40.599Z,20.25
2022-09-12T21:11:07.398Z,20.21
2022-09-12T21:13:34.514Z,20.19
2022-09-12T21:16:05.861Z,20.01
2022-09-12T21:18:33.583Z,20.06
2022-09-12T21:21:00.352Z,19.94
2022-09-12T21:23:28.925Z,19.97
2022-09-12T21:25:56.098Z,19.86
2022-09-12T21:28:22.758Z,19.68
2022-09-12T21:30:49.931Z,19.73
2022-09-12T21:33:19.211Z,19.75
2022-09-12T21:35:47.303Z,19.80
2022-09-12T21:38:18.477Z,19.77
2022-09-12T21:40:46.097Z,19.50
2022-09-12T21:43:13.638Z,19.54
2022-09-12T21:45:40.705Z,19.78
2022-09-12T21:48:07.695Z,19.53
2022-09-12T21:50:34.850Z,19.43
2022-09-12T21:53:01.518Z,19.77
2022-09-12T21:55:28.144Z,19.82
2022-09-12T21:57:55.399Z,19.78
2022-09-12T22:00:22.935Z,19.49
2022-09-12T22:02:49.870Z,19.48
2022-09-12T22:05:17.163Z,19.49
2022-09-12T22:07:44.009Z,19.39
2022-09-12T22:10:10.846Z,19.32
2022-09-12T22:12:37.517Z,19.21
2022-09-12T22:15:22.797Z,19.10
2022-09-12T22:17:49.855Z,19.20
2022-09-12T22:20:16.619Z,19.44
2022-09-12T22:23:01.804Z,19.06
2022-09-12T22:25:28.527Z,19.12
2022-09-12T22:27:55.172Z,19.21
2022-09-12T22:30:22.719Z,18.86
2022-09-12T22:32:51.424Z,19.08
2022-09-12T22:35:19.101Z,19.10
2022-09-12T22:37:47.706Z,18.63
2022-09-12T22:40:15.531Z,19.05
2022-09-12T22:42:42.649Z,18.84
2022-09-12T22:45:09.834Z,19.05
2022-09-12T22:47:36.610Z,18.63
2022-09-12T22:50:03.779Z,19.02
2022-09-12T22:52:30.442Z,18.48
2022-09-12T22:54:57.208Z,18.75
2022-09-12T22:57:23.865Z,18.46
2022-09-12T22:59:50.454Z,18.60
2022-09-12T23:02:17.065Z,18.67
2022-09-12T23:04:43.854Z,18.40
2022-09-12T23:07:10.652Z,18.64
2022-09-12T23:09:37.376Z,18.96
2022-09-12T23:12:04.422Z,18.67
2022-09-12T23:14:31.427Z,18.71
2022-09-12T23:16:58.103Z,18.45
2022-09-12T23:19:24.721Z,18.67
2022-09-12T23:21:51.358Z,18.59
2022-09-12T23:24:18.060Z,18.41
2022-09-12T23:26:44.651Z,18.51
2022-09-12T23:29:11.420Z,18.76
2022-09-12T23:31:38.165Z,18.48
2022-09-12T23:34:06.084Z,18.53
2022-09-12T23:36:33.623Z,18.49
2022-09-12T23:39:00.321Z,18.72
2022-09-12T23:41:27.111Z,18.92
2022-09-12T23:43:53.808Z,19.02
2022-09-12T23:46:21.917Z,18.97
2022-09-12T23:48:49.277Z,19.21
2022-09-12T23:51:16.499Z,18.67
2022-09-12T23:53:43.228Z,18.82
2022-09-12T23:56:10.015Z,18.89
2022-09-12T23:58:37.028Z,18.91
